Tiempo atmosférico en la estación meteorológica de Astorga, León (919 m.)



Fecha
DESCASC
Temp. máxima en grados centígrados (hora)
DESCASC
Temp. mínima en grados centígrados (hora)
DESCASC
Temp. media en grados centígrados
DESCASC
Racha de viento máxima en m/sg (hora)
DESCASC
Velocidad máxima media en intervalos de 10 minutos(hora)
DESCASC
Precipitaciones diarias en mm
DESCASC
Precipitaciones de 00:00 a 06:00 en mm
DESCASC
Precipitaciones de 06:00 a 12:00 en mm
DESCASC
Precipitaciones de 12:00 a 18:00 en mm
DESCASC
Precipitaciones de 18:00 a 24:00 en mm
DESCASC
16-01-2020 10.1 (13:40) 4.7 (23:00) 7.4 20.28 (18:40) 15 (18:00) 0.8 0.2 0.2 0 0.4
15-01-2020 13 (13:40) 4.8 (00:00) 8.9 14.17 (00:30) 10.83 (00:30) 1.6 0 1.4 0 0.2
14-01-2020 5.8 (16:50) -1.2 (00:00) 2.3 14.72 (23:10) 10.28 (23:20) 0 0 0 0 0
13-01-2020 -1.2 (23:20) -6 (08:50) -3.6 3.89 (14:40) 2.5 (14:40) 0 0 0 0 0
12-01-2020 0.5 (15:20) -5.2 (-00:0) -2.3 3.06 (15:30) 2.22 (00:40) 0 0 0 0 0
11-01-2020 9.4 (16:20) -3.9 (-00:0) 2.7 3.89 (14:00) 2.5 (13:20) 0 0 0 0 0
10-01-2020 11.9 (15:30) -1.3 (-00:0) 5.3 7.78 (01:20) 3.61 (03:10) 0 0 0 0 0
09-01-2020 11.2 (14:40) 1.7 (00:00) 6.4 10.83 (17:20) 6.39 (19:10) 0.2 0 0 0 0.2
08-01-2020 14.7 (14:20) -1.6 (-00:0) 6.5 3.61 (08:20) 3.06 (08:20) 0 0 0 0 0
07-01-2020 11.1 (15:50) -5.1 (-00:0) 3 3.06 (15:00) 2.22 (02:50) 0 0 0 0 0
06-01-2020 0.4 (16:30) -6.1 (-00:0) -2.8 3.06 (12:50) 2.5 (01:30) 0 0 0 0 0
05-01-2020 18.3 (16:20) -3.2 (-00:0) 7.5 3.61 (01:40) 2.78 (01:40) 0 0 0 0 0
04-01-2020 2.5 (00:20) -3.4 (-00:0) -0.5 3.89 (21:20) 2.78 (21:30) 0 0 0 0 0
03-01-2020 5.6 (15:50) -2.5 (-00:0) 1.5 3.61 (15:50) 2.22 (04:30) 0 0 0 0 0
02-01-2020 9.2 (14:40) -3.3 (-00:0) 2.9 3.06 (15:40) 2.5 (16:40) 0 0 0 0 0
01-01-2020 12.1 (16:40) -2.2 (-00:0) 5 3.33 (12:50) 2.22 (05:40) 0 0 0 0 0
31-12-2019 -- (--) -- (--) -- -- (--) -- (--) -- -- -- 0 0
30-12-2019 -- (--) -- (--) -- -- (--) -- (--) -- 0 0 0 --
29-12-2019 17.3 (14:10) -0.7 (-00:0) 8.3 3.61 (09:10) 3.06 (09:10) 0 0 0 0 0
28-12-2019 19.4 (14:40) -1.6 (-00:0) 8.9 3.06 (01:20) 2.78 (01:20) 0 0 0 0 0
27-12-2019 17.2 (16:30) -4.8 (-00:0) 6.2 2.78 (00:30) 2.22 (03:50) 0 0 0 0 0
26-12-2019 11.3 (15:30) 1.3 (00:00) 6.3 5 (14:10) 3.61 (14:10) 0.2 0 0.2 0 0
25-12-2019 7 (21:00) 5.7 (00:00) 6.3 3.06 (21:10) 2.22 (00:20) 0 0 0 0 0
24-12-2019 7.6 (14:10) 3.6 (00:00) 5.6 4.44 (06:10) 3.89 (06:10) 0.2 0 0 0 0.2
23-12-2019 10.9 (14:20) 1.8 (00:00) 6.3 9.44 (02:20) 4.17 (02:20) 0 0 0 0 0
22-12-2019 11.9 (11:30) 5.3 (00:00) 8.6 20.28 (05:10) 11.67 (13:30) 3.6 2.6 0.6 0.4 0
21-12-2019 14.2 (12:00) 4.5 (00:00) 9.3 23.06 (18:50) 13.33 (18:40) 5.8 0.4 0.4 1.2 3.8
20-12-2019 7.6 (01:10) 2.9 (00:00) 5.3 12.22 (02:00) 6.39 (02:00) 9.8 0.6 0.6 7.2 1.4

Gráficas

Temp. máximas Temp. mínimas Temp. medias Precipitaciones Rachas de viento máximas Velocidades máximas media en intervalos de 10 minutos

Datos horarios

Fecha y hora oficial Temperatura (ºC) Velocidad del viento (km/h) Dirección del viento Racha (km/h) Dirección de racha Precipitación (mm) Presión (hPa) Tendencia (hPa) Humedad (%)
2020-01-18 23:00:00 3 9 Noroeste 26 Oeste 0 -- -- 87
2020-01-18 22:00:00 2.8 7 Norte 24 Noroeste 0 -- -- 88
2020-01-18 21:00:00 4.1 14 Noroeste 27 Noroeste 0 -- -- 83
2020-01-18 20:00:00 3.2 10 Noroeste 30 Oeste 0 -- -- 89
2020-01-18 19:00:00 3.9 14 Oeste 39 Noroeste 0 -- -- 86
2020-01-18 18:00:00 4.7 20 Noroeste 42 Oeste 0 -- -- 80
2020-01-18 17:00:00 6.8 27 Noroeste 48 Noroeste 1 -- -- 81
2020-01-18 16:00:00 5.9 18 Norte 28 Norte 0.4 -- -- 96
2020-01-18 15:00:00 5.4 4 Nordeste 25 Norte 0 -- -- 97
2020-01-18 14:00:00 4.3 17 Norte 24 Norte 0 -- -- 99
2020-01-18 13:00:00 3.8 8 Norte 12 Norte 0 -- -- 98
2020-01-18 12:00:00 3.5 6 Nordeste 9 Norte 0 -- -- 99
2020-01-18 11:00:00 3.1 4 Nordeste 10 Este 0 -- -- 98
2020-01-18 10:00:00 2.5 4 Este 11 Este 0 -- -- 98
2020-01-18 09:00:00 2.2 5 Este 10 Este 0 -- -- 97
2020-01-18 08:00:00 1.9 3 Nordeste 6 Norte 0 -- -- 95
2020-01-18 07:00:00 1.8 2 Nordeste 9 Norte 0 -- -- 94
2020-01-18 06:00:00 1.2 10 Norte 15 Norte 0 -- -- 95
2020-01-18 05:00:00 1.8 10 Nordeste 12 Norte 0 -- -- 93
2020-01-18 04:00:00 1.8 3 Nordeste 6 Norte 0 -- -- 91
2020-01-18 03:00:00 1.6 5 Nordeste 9 Norte 0 -- -- 90
2020-01-18 02:00:00 2.3 3 Nordeste 8 Oeste 0 -- -- 85
2020-01-18 01:00:00 2.1 6 Oeste 11 Noroeste 0 -- -- 84
2020-01-18 00:00:00 1.5 8 Norte 15 Norte 0 -- -- 90
2020-01-17 23:00:00 1.9 8 Nordeste 9 Nordeste 0 -- -- 87
2020-01-17 22:00:00 2.4 4 Norte 9 Norte 0 -- -- 82
2020-01-17 21:00:00 2.6 3 Nordeste 6 Oeste 0 -- -- 81
2020-01-17 20:00:00 3 3 Noroeste 18 Noroeste 0 -- -- 77
2020-01-17 19:00:00 3.3 9 Noroeste 17 Noroeste 0 -- -- 76
2020-01-17 18:00:00 4.5 8 Noroeste 22 Noroeste 0 -- -- 70
2020-01-17 17:00:00 5.6 13 Noroeste 24 Oeste 0 -- -- 64
2020-01-17 16:00:00 7 15 Noroeste 26 Oeste 0 -- -- 62
2020-01-17 15:00:00 6 17 Oeste 36 Oeste 0 -- -- 64
2020-01-17 14:00:00 8.3 21 Oeste 37 Oeste 0 -- -- 57
2020-01-17 13:00:00 7.5 19 Oeste 33 Sudoeste 0 -- -- 63
2020-01-17 12:00:00 6.3 15 Noroeste 35 Oeste 0 -- -- 72
2020-01-17 11:00:00 6.9 14 Oeste 30 Noroeste 0 -- -- 68
2020-01-17 10:00:00 4.2 9 Oeste 26 Oeste 0 -- -- 83
2020-01-17 09:00:00 2.9 9 Noroeste 30 Oeste 0 -- -- 88
2020-01-17 08:00:00 3.6 12 Oeste 31 Noroeste 0 -- -- 87
2020-01-17 07:00:00 4 20 Oeste 37 Oeste 0 -- -- 80
2020-01-17 06:00:00 3.8 14 Oeste 27 Oeste 0 -- -- 87
2020-01-17 05:00:00 4 9 Oeste 23 Oeste 0.2 -- -- 91
2020-01-17 04:00:00 4.1 5 Sur 9 Sur 0.2 -- -- 99
2020-01-17 03:00:00 4.7 4 Sur 6 Sudoeste 0.4 -- -- 97
2020-01-17 02:00:00 4.8 4 Nordeste 6 Norte 0 -- -- 94
2020-01-17 01:00:00 5.5 5 Este 15 Noroeste 0 -- -- 89
2020-01-17 00:00:00 6 10 Noroeste 22 Sudoeste 0 -- -- 84
2020-01-16 23:00:00 4.7 8 Oeste 15 Oeste 0 -- -- 90
2020-01-16 22:00:00 5.6 10 Sur 36 Sur 0 -- -- 95
2020-01-16 21:00:00 6.3 22 Sur 35 Sur 0 -- -- 95
2020-01-16 20:00:00 6.1 22 Sudoeste 49 Sur 0 -- -- 94
2020-01-16 19:00:00 6.7 38 Sudoeste 73 Sudoeste 0.4 -- -- 89
2020-01-16 18:00:00 7.8 54 Sur 71 Sur 0 -- -- 82
2020-01-16 17:00:00 8.3 33 Sudoeste 72 Sudoeste 0 -- -- 79
2020-01-16 16:00:00 9.3 32 Sur 44 Sur 0 -- -- 76
2020-01-16 15:00:00 9.5 19 Sur 45 Sur 0 -- -- 74
2020-01-16 14:00:00 10 23 Sur 44 Sur 0 -- -- 72
2020-01-16 13:00:00 9.5 22 Sur 41 Sur 0 -- -- 81
2020-01-16 12:00:00 8.7 26 Sur 44 Sur 0 -- -- 90
2020-01-16 11:00:00 8 29 Sur 40 Sur 0.2 -- -- 97
2020-01-16 10:00:00 7.9 23 Sur 46 Sur 0 -- -- 97
2020-01-16 09:00:00 8.2 33 Sur 49 Sur 0 -- -- 94
2020-01-16 08:00:00 8.3 36 Sur 49 Sur 0 -- -- 94
2020-01-16 07:00:00 8.3 38 Sur 50 Sur 0 -- -- 94
2020-01-16 06:00:00 8.2 41 Sur 55 Sudoeste 0 -- -- 96
2020-01-16 05:00:00 8.3 31 Sur 42 Sur 0.2 -- -- 97
2020-01-16 04:00:00 8.1 23 Sur 34 Sur 0 -- -- 97
2020-01-16 03:00:00 7.8 6 Este 36 Sur 0 -- -- 97
2020-01-16 02:00:00 8.2 27 Sur 50 Sur 0 -- -- 97
2020-01-16 01:00:00 8 25 Sur 32 Sur 0 -- -- 100
2020-01-16 00:00:00 7.5 13 Sudeste 18 Sudeste 0 -- -- 99
2020-01-15 23:00:00 4.8 6 Nordeste 13 Noroeste 0.2 -- -- 97
2020-01-15 22:00:00 5.7 4 Nordeste 15 Este 0 -- -- 93
2020-01-15 21:00:00 5.2 4 Este 13 Sudeste 0 -- -- 89
2020-01-15 20:00:00 7.1 8 Sudeste 14 Sur 0 -- -- 78
2020-01-15 19:00:00 6.3 10 Sudoeste 23 Sudoeste 0 -- -- 79
2020-01-15 18:00:00 9.4 21 Sudoeste 38 Sur 0 -- -- 65
2020-01-15 17:00:00 10.7 26 Sur 39 Sudoeste 0 -- -- 72
2020-01-15 16:00:00 11 28 Sur 39 Sur 0 -- -- 73
2020-01-15 15:00:00 10.7 24 Sur 31 Sur 0 -- -- 76
2020-01-15 14:00:00 11.6 19 Sur 27 Sur 0 -- -- 72
2020-01-15 13:00:00 11.7 6 Este 15 Sur 0 -- -- 70
2020-01-15 12:00:00 9.4 8 Nordeste 12 Nordeste 0 -- -- 80
2020-01-15 11:00:00 6 6 Nordeste 17 Nordeste 0 -- -- 93
2020-01-15 10:00:00 5.7 9 Norte 42 Sur 1.4 -- -- 95
2020-01-15 09:00:00 6.4 29 Sur 40 Sudeste 0 -- -- 96
2020-01-15 08:00:00 6.6 18 Sur 36 Sur 0 -- -- 96
2020-01-15 07:00:00 6.4 31 Sur 41 Sudeste 0 -- -- 96
2020-01-15 06:00:00 6 26 Sudeste 34 Sudeste 0 -- -- 98
2020-01-15 05:00:00 6.1 20 Sudeste 37 Sudeste 0 -- -- 97
2020-01-15 04:00:00 5.9 12 Este 41 Sur 0 -- -- 97
2020-01-15 03:00:00 5.8 35 Sur 46 Sur 0 -- -- 95
2020-01-15 02:00:00 5.3 36 Sur 48 Sur 0 -- -- 96
2020-01-15 01:00:00 5 31 Sur 51 Sur 0 -- -- 98
2020-01-15 00:00:00 4.8 37 Sur 53 Sur 0 -- -- 98
2020-01-14 23:00:00 4.7 35 Sur 50 Sur 0 -- -- 98
2020-01-14 22:00:00 5 33 Sur 49 Sur 0 -- -- 95
2020-01-14 21:00:00 5.1 29 Sur 44 Sur 0 -- -- 93
2020-01-14 20:00:00 5.4 22 Sur 34 Sur 0 -- -- 90
2020-01-14 19:00:00 5.6 21 Sur 45 Sur 0 -- -- 89
2020-01-14 18:00:00 5.5 27 Sur 41 Sur 0 -- -- 89
2020-01-14 17:00:00 5.7 13 Sur 32 Sur 0 -- -- 96
2020-01-14 16:00:00 5 6 Sudeste 13 Norte 0 -- -- 99
2020-01-14 15:00:00 4.6 9 Norte 14 Nordeste 0 -- -- 98
2020-01-14 14:00:00 3.6 8 Nordeste 12 Nordeste 0 -- -- 99
2020-01-14 13:00:00 3.3 5 Nordeste 9 Nordeste 0 -- -- 98
2020-01-14 12:00:00 2.3 6 Nordeste 8 Nordeste 0 -- -- 99
2020-01-14 11:00:00 1.3 5 Norte 10 Norte 0 -- -- 100
2020-01-14 10:00:00 0.2 7 Norte 10 Norte 0 -- -- 100
2020-01-14 09:00:00 -0.1 7 Norte 10 Norte 0 -- -- 100
2020-01-14 08:00:00 -0.2 5 Norte 10 Norte 0 -- -- 100
2020-01-14 07:00:00 -0.4 6 Norte 10 Norte 0 -- -- 100
2020-01-14 06:00:00 -0.6 7 Norte 11 Norte 0 -- -- 100
2020-01-14 05:00:00 -0.7 6 Norte 8 Norte 0 -- -- 100
2020-01-14 04:00:00 -1 6 Norte 10 Norte 0 -- -- 100
2020-01-14 03:00:00 -0.9 5 Norte 8 Norte 0 -- -- 100
2020-01-14 02:00:00 -1 5 Nordeste 7 Norte 0 -- -- 100
2020-01-14 01:00:00 -1 4 Oeste 7 Oeste 0 -- -- 100
2020-01-14 00:00:00 -1.2 4 Norte 10 Norte 0 -- -- 99
2020-01-13 23:00:00 -1.4 7 Norte 10 Norte 0 -- -- 99
2020-01-13 22:00:00 -1.6 7 Norte 11 Norte 0 -- -- 99
2020-01-13 21:00:00 -1.6 6 Norte 9 Norte 0 -- -- 99
2020-01-13 20:00:00 -1.8 4 Norte 8 Norte 0 -- -- 99
2020-01-13 19:00:00 -2.2 6 Norte 9 Norte 0 -- -- 99
2020-01-13 18:00:00 -2.2 3 Norte 7 Este 0 -- -- 98
2020-01-13 17:00:00 -2.2 4 Este 11 Sur 0 -- -- 98
2020-01-13 16:00:00 -2 3 Este 10 Sudeste 0 -- -- 98
2020-01-13 15:00:00 -2.4 5 Este 14 Sudeste 0 -- -- 97
2020-01-13 14:00:00 -2 5 Este 10 Sur 0 -- -- 97
2020-01-13 13:00:00 -2.9 4 Sudeste 10 Sudoeste 0 -- -- 96
2020-01-13 12:00:00 -3.9 7 Sur 11 Sur 0 -- -- 96
2020-01-13 11:00:00 -4 3 Nordeste 6 Nordeste 0 -- -- 96
2020-01-13 10:00:00 -5.4 3 Nordeste 5 Sudeste 0 -- -- 96
2020-01-13 09:00:00 -5.9 0 Calma 5 Sur 0 -- -- 96
2020-01-13 08:00:00 -5.8 4 Sur 6 Sudoeste 0 -- -- 96
2020-01-13 07:00:00 -5.6 3 Noroeste 8 Norte 0 -- -- 97
2020-01-13 06:00:00 -5.5 6 Norte 10 Norte 0 -- -- 96
2020-01-13 05:00:00 -4.8 5 Oeste 9 Noroeste 0 -- -- 97
2020-01-13 04:00:00 -5 3 Nordeste 5 Nordeste 0 -- -- 97
2020-01-13 03:00:00 -4.8 3 Nordeste 6 Norte 0 -- -- 98
2020-01-13 02:00:00 -4.7 3 Norte 5 Norte 0 -- -- 98
2020-01-13 01:00:00 -4.9 3 Norte 5 Norte 0 -- -- 98
2020-01-13 00:00:00 -4.5 4 Norte 5 Noroeste 0 -- -- 97
2020-01-12 23:00:00 -3.3 2 Nordeste 6 Norte 0 -- -- 98
2020-01-12 22:00:00 -3.1 2 Este 7 Nordeste 0 -- -- 98
2020-01-12 21:00:00 -2.5 4 Nordeste 7 Nordeste 0 -- -- 99
2020-01-12 20:00:00 -2.1 0 Calma 5 Este 0 -- -- 99
2020-01-12 19:00:00 -1.7 0 Calma 4 Sudoeste 0 -- -- 99
2020-01-12 18:00:00 -1.1 2 Sudoeste 6 Sur 0 -- -- 99
2020-01-12 17:00:00 -0.7 3 Sudoeste 9 Sudoeste 0 -- -- 98
2020-01-12 16:00:00 -0.3 5 Sur 11 Sur 0 -- -- 98
2020-01-12 15:00:00 0.3 3 Sur 8 Sudoeste 0 -- -- 96
2020-01-12 14:00:00 -0.7 5 Sur 10 Sur 0 -- -- 97
2020-01-12 13:00:00 -1.1 4 Sur 8 Sudeste 0 -- -- 97
2020-01-12 12:00:00 -1.8 3 Sur 5 Sudeste 0 -- -- 97
2020-01-12 11:00:00 -2.5 3 Sudoeste 6 Oeste 0 -- -- 97
2020-01-12 10:00:00 -3.3 3 Sudoeste 5 Oeste 0 -- -- 97
2020-01-12 09:00:00 -3.9 0 Calma 6 Norte 0 -- -- 97
2020-01-12 08:00:00 -4.6 3 Nordeste 6 Norte 0 -- -- 98
2020-01-12 07:00:00 -4.7 0 Calma 4 Sudoeste 0 -- -- 97
2020-01-12 06:00:00 -4.2 0 Calma 4 Sur 0 -- -- 98
2020-01-12 05:00:00 -2.9 3 Sur 7 Norte 0 -- -- 98
2020-01-12 04:00:00 -2.1 4 Sur 5 Sur 0 -- -- 98
2020-01-12 03:00:00 -1.4 2 Sudoeste 5 Sudoeste 0 -- -- 97
2020-01-12 02:00:00 -0.5 0 Calma 6 Norte 0 -- -- 97
2020-01-12 01:00:00 -0.2 5 Norte 9 Norte 0 -- -- 97
2020-01-12 00:00:00 0.3 3 Sudeste 7 Norte 0 -- -- 96
2020-01-11 23:00:00 -0.3 6 Norte 11 Norte 0 -- -- 96
2020-01-11 22:00:00 -0.3 0 Calma 5 Nordeste 0 -- -- 92
2020-01-11 21:00:00 1.4 4 Norte 5 Norte 0 -- -- 91
2020-01-11 20:00:00 3.5 0 Calma 4 Este 0 -- -- 84
2020-01-11 19:00:00 4.1 0 Calma 8 Sudeste 0 -- -- 81
2020-01-11 18:00:00 6.8 5 Sudeste 11 Sudeste 0 -- -- 71
2020-01-11 17:00:00 9 9 Sudeste 14 Sudeste 0 -- -- 63
2020-01-11 16:00:00 9.1 8 Sudeste 14 Sudeste 0 -- -- 64
2020-01-11 15:00:00 8 7 Sudeste 13 Sur 0 -- -- 65
2020-01-11 14:00:00 8.6 8 Sur 14 Sur 0 -- -- 62
2020-01-11 13:00:00 6.9 7 Sudeste 12 Sudeste 0 -- -- 67
2020-01-11 12:00:00 5.7 5 Sur 8 Sur 0 -- -- 67
2020-01-11 11:00:00 5.9 0 Calma 5 Sudeste 0 -- -- 66
2020-01-11 10:00:00 -0.2 5 Nordeste 8 Norte 0 -- -- 82
2020-01-11 09:00:00 -3.3 2 Norte 6 Norte 0 -- -- 97
2020-01-11 08:00:00 -3.1 3 Sur 8 Norte 0 -- -- 97
2020-01-11 07:00:00 -2.8 8 Norte 10 Norte 0 -- -- 96
2020-01-11 06:00:00 -3.1 8 Norte 10 Norte 0 -- -- 96
2020-01-11 05:00:00 -2.8 3 Nordeste 5 Sudeste 0 -- -- 95
2020-01-11 04:00:00 -2 2 Sur 8 Sudeste 0 -- -- 93
2020-01-11 03:00:00 -1.4 4 Norte 7 Este 0 -- -- 91
2020-01-11 02:00:00 -2 5 Norte 11 Sudeste 0 -- -- 95
2020-01-11 01:00:00 -0.9 3 Este 9 Sudeste 0 -- -- 92
2020-01-11 00:00:00 -1.3 2 Sur 9 Norte 0 -- -- 92
2020-01-10 23:00:00 -1.1 3 Norte 10 Noroeste 0 -- -- 88
2020-01-10 22:00:00 0 4 Sur 10 Oeste 0 -- -- 85
2020-01-10 21:00:00 1.4 4 Oeste 14 Norte 0 -- -- 82
2020-01-10 20:00:00 2.5 9 Norte 15 Norte 0 -- -- 77
2020-01-10 19:00:00 3.5 9 Norte 14 Nordeste 0 -- -- 73
2020-01-10 18:00:00 7.4 6 Nordeste 10 Nordeste 0 -- -- 59
2020-01-10 17:00:00 11.7 2 Noroeste 10 Este 0 -- -- 46
2020-01-10 16:00:00 9.7 6 Nordeste 13 Este 0 -- -- 51
2020-01-10 15:00:00 10.5 5 Norte 14 Norte 0 -- -- 49
2020-01-10 14:00:00 10.8 10 Nordeste 20 Nordeste 0 -- -- 50
2020-01-10 13:00:00 11.1 6 Noroeste 12 Noroeste 0 -- -- 47
2020-01-10 12:00:00 9.8 7 Noroeste 15 Noroeste 0 -- -- 53
2020-01-10 11:00:00 6.9 5 Nordeste 14 Norte 0 -- -- 63
2020-01-10 10:00:00 2.8 4 Oeste 12 Noroeste 0 -- -- 79
2020-01-10 09:00:00 0.7 7 Norte 20 Noroeste 0 -- -- 84
2020-01-10 08:00:00 1.3 9 Noroeste 18 Noroeste 0 -- -- 83
2020-01-10 07:00:00 0.4 8 Oeste 11 Oeste 0 -- -- 88
2020-01-10 06:00:00 0.3 6 Sur 16 Noroeste 0 -- -- 87
2020-01-10 05:00:00 1.8 9 Oeste 19 Noroeste 0 -- -- 82
2020-01-10 04:00:00 2 7 Noroeste 23 Noroeste 0 -- -- 79
2020-01-10 03:00:00 2.7 13 Noroeste 22 Noroeste 0 -- -- 81
2020-01-10 02:00:00 2.8 8 Oeste 28 Noroeste 0 -- -- 80
2020-01-10 01:00:00 3.4 9 Noroeste 23 Noroeste 0 -- -- 79
2020-01-10 00:00:00 3.5 7 Sudoeste 31 Oeste 0 -- -- 77
2020-01-09 23:00:00 3.3 5 Oeste 25 Noroeste 0 -- -- 76
2020-01-09 22:00:00 3.5 9 Noroeste 37 Noroeste 0 -- -- 78
2020-01-09 21:00:00 3.6 18 Noroeste 29 Oeste 0 -- -- 78
2020-01-09 20:00:00 4.2 17 Noroeste 39 Noroeste 0.2 -- -- 80
2020-01-09 19:00:00 4.8 20 Noroeste 36 Noroeste 0 -- -- 87
2020-01-09 18:00:00 6.5 15 Noroeste 39 Noroeste 0 -- -- 80
2020-01-09 17:00:00 10.6 16 Oeste 37 Oeste 0 -- -- 69
2020-01-09 16:00:00 9.9 12 Sudeste 22 Sudeste 0 -- -- 76
2020-01-09 15:00:00 10.9 6 Nordeste 13 Este 0 -- -- 69
2020-01-09 14:00:00 9.8 7 Sudeste 17 Sudeste 0 -- -- 66
2020-01-09 13:00:00 9.4 10 Sudeste 16 Sudeste 0 -- -- 66
2020-01-09 12:00:00 9.9 4 Sur 14 Sur 0 -- -- 62
2020-01-09 11:00:00 7 6 Sur 9 Sur 0 -- -- 68
2020-01-09 10:00:00 4.8 5 Sudoeste 10 Este 0 -- -- 75
2020-01-09 09:00:00 2.2 6 Nordeste 8 Norte 0 -- -- 89
2020-01-09 08:00:00 1.8 3 Sudeste 8 Sur 0 -- -- 94
2020-01-09 07:00:00 4.2 5 Sur 9 Sur 0 -- -- 89
2020-01-09 06:00:00 2.8 3 Sudoeste 8 Este 0 -- -- 94
2020-01-09 05:00:00 5.4 5 Noroeste 19 Noroeste 0 -- -- 87
2020-01-09 04:00:00 3.6 5 Norte 9 Norte 0 -- -- 83
2020-01-09 03:00:00 3.4 6 Norte 7 Norte 0 -- -- 79
2020-01-09 02:00:00 4.2 3 Sur 5 Sur 0 -- -- 75
2020-01-09 01:00:00 3.8 2 Nordeste 4 Nordeste 0 -- -- 79
2020-01-09 00:00:00 4.1 0 Calma 6 Este 0 -- -- 78
2020-01-08 23:00:00 4.2 0 Calma 5 Oeste 0 -- -- 76
2020-01-08 22:00:00 4.9 3 Sudoeste 5 Oeste 0 -- -- 70
2020-01-08 21:00:00 4.6 5 Norte 6 Norte 0 -- -- 71
2020-01-08 20:00:00 7.4 3 Sudeste 5 Sudeste 0 -- -- 57
2020-01-08 19:00:00 8.7 0 Calma 3 Sur 0 -- -- 51
2020-01-08 18:00:00 12.7 0 Calma 6 Sur 0 -- -- 42
2020-01-08 17:00:00 13.5 4 Sur 11 Sudeste 0 -- -- 42
2020-01-08 16:00:00 14.1 7 Sur 12 Sudeste 0 -- -- 43
2020-01-08 15:00:00 13.9 7 Sudeste 12 Sur 0 -- -- 43
2020-01-08 14:00:00 13.8 5 Sur 12 Sudeste 0 -- -- 45
2020-01-08 13:00:00 12 6 Sur 10 Sur 0 -- -- 47
2020-01-08 12:00:00 11.6 3 Sur 5 Sudoeste 0 -- -- 49
2020-01-08 11:00:00 9.3 0 Calma 5 Nordeste 0 -- -- 59
2020-01-08 10:00:00 5.8 0 Calma 5 Nordeste 0 -- -- 65
2020-01-08 09:00:00 0 2 Noroeste 13 Noroeste 0 -- -- 88
2020-01-08 08:00:00 -0.9 0 Calma 7 Oeste 0 -- -- 90
2020-01-08 07:00:00 -0.2 4 Sudoeste 7 Noroeste 0 -- -- 94
2020-01-08 06:00:00 -0.9 0 Calma 5 Noroeste 0 -- -- 94
2020-01-08 05:00:00 -1.5 4 Norte 6 Norte 0 -- -- 94
2020-01-08 04:00:00 -0.8 4 Norte 6 Noroeste 0 -- -- 91
2020-01-08 03:00:00 -0.1 0 Calma 5 Noroeste 0 -- -- 90
2020-01-08 02:00:00 0.3 0 Calma 5 Noroeste 0 -- -- 88
2020-01-08 01:00:00 1.1 4 Norte 7 Norte 0 -- -- 84
2020-01-08 00:00:00 0.7 2 Norte 5 Nordeste 0 -- -- 89
2020-01-07 23:00:00 0.7 3 Noroeste 5 Norte 0 -- -- 91
2020-01-07 22:00:00 1.2 0 Calma 5 Nordeste 0 -- -- 91
2020-01-07 21:00:00 1.8 0 Calma 6 Sudoeste 0 -- -- 89
2020-01-07 20:00:00 2.6 5 Sudoeste 6 Sudoeste 0 -- -- 85
2020-01-07 19:00:00 3.7 4 Sur 5 Sur 0 -- -- 78
2020-01-07 18:00:00 6.5 2 Sur 8 Sudeste 0 -- -- 68
2020-01-07 17:00:00 9.3 6 Sur 10 Sudeste 0 -- -- 59
2020-01-07 16:00:00 10.6 6 Sur 10 Sudeste 0 -- -- 49
2020-01-07 15:00:00 9.7 7 Sur 11 Sur 0 -- -- 51
2020-01-07 14:00:00 9.1 6 Sur 10 Sudeste 0 -- -- 58
2020-01-07 13:00:00 8.4 4 Sur 9 Sur 0 -- -- 60
2020-01-07 12:00:00 6.5 3 Sur 5 Sur 0 -- -- 71
2020-01-07 11:00:00 3.2 2 Noroeste 7 Norte 0 -- -- 92
2020-01-07 10:00:00 -1.4 5 Norte 9 Norte 0 -- -- 96
2020-01-07 09:00:00 -3.4 3 Nordeste 5 Norte 0 -- -- 98
2020-01-07 08:00:00 -3.7 0 Calma 5 Norte 0 -- -- 98
2020-01-07 07:00:00 -3.5 2 Norte 9 Norte 0 -- -- 98
2020-01-07 06:00:00 -3.8 3 Norte 6 Nordeste 0 -- -- 98
2020-01-07 05:00:00 -3.9 0 Calma 5 Nordeste 0 -- -- 98
2020-01-07 04:00:00 -4.5 0 Calma 6 Norte 0 -- -- 98
2020-01-07 03:00:00 -4.8 8 Norte 9 Norte 0 -- -- 97
2020-01-07 02:00:00 -5.1 0 Calma 6 Noroeste 0 -- -- 97
2020-01-07 01:00:00 -4.2 5 Norte 9 Norte 0 -- -- 97
2020-01-07 00:00:00 -2.7 3 Nordeste 7 Nordeste 0 -- -- 98
2020-01-06 23:00:00 -2.2 2 Norte 6 Nordeste 0 -- -- 98
2020-01-06 22:00:00 -2.4 2 Sudeste 8 Sur 0 -- -- 98
2020-01-06 21:00:00 -2.7 0 Calma 9 Oeste 0 -- -- 98
2020-01-06 20:00:00 -2.2 5 Sudoeste 8 Sudoeste 0 -- -- 98
2020-01-06 19:00:00 -1.5 2 Sudeste 7 Sudoeste 0 -- -- 98
2020-01-06 18:00:00 -1.2 4 Sudoeste 9 Sur 0 -- -- 98
2020-01-06 17:00:00 0 5 Sudoeste 8 Sudeste 0 -- -- 95
2020-01-06 16:00:00 0.1 4 Sur 11 Sur 0 -- -- 94
2020-01-06 15:00:00 -0.1 5 Sur 9 Sur 0 -- -- 94
2020-01-06 14:00:00 -0.9 3 Sur 10 Sudeste 0 -- -- 94
2020-01-06 13:00:00 -1.9 6 Sur 11 Sudeste 0 -- -- 95
2020-01-06 12:00:00 -2.5 4 Sur 9 Sur 0 -- -- 92
2020-01-06 11:00:00 -1.6 2 Sur 6 Sur 0 -- -- 84
2020-01-06 10:00:00 -2.7 3 Sur 6 Noroeste 0 -- -- 86